createdAt,value
2022-11-20T00:01:11.548Z,7.55
2022-11-20T00:03:24.568Z,7.49
2022-11-20T00:05:39.007Z,7.40
2022-11-20T00:07:51.712Z,7.31
2022-11-20T00:10:04.205Z,7.22
2022-11-20T00:12:18.196Z,7.17
2022-11-20T00:14:30.804Z,7.13
2022-11-20T00:16:43.411Z,7.03
2022-11-20T00:18:56.896Z,6.93
2022-11-20T00:21:10.961Z,6.86
2022-11-20T00:23:23.790Z,6.79
2022-11-20T00:25:37.726Z,6.73
2022-11-20T00:27:50.398Z,6.64
2022-11-20T00:30:02.974Z,6.58
2022-11-20T00:32:15.714Z,6.54
2022-11-20T00:34:28.766Z,6.50
2022-11-20T00:36:41.183Z,6.44
2022-11-20T00:38:55.422Z,6.38
2022-11-20T00:41:09.743Z,6.32
2022-11-20T00:43:22.489Z,6.28
2022-11-20T00:45:34.958Z,6.25
2022-11-20T00:47:47.677Z,6.18
2022-11-20T00:50:00.722Z,6.12
2022-11-20T00:52:13.719Z,6.07
2022-11-20T00:54:26.661Z,6.01
2022-11-20T00:56:39.259Z,5.98
2022-11-20T00:58:52.784Z,5.94
2022-11-20T01:01:09.933Z,5.90
2022-11-20T01:03:26.855Z,5.85
2022-11-20T01:05:43.311Z,5.79
2022-11-20T01:07:55.858Z,5.74
2022-11-20T01:10:08.634Z,5.68
2022-11-20T01:12:21.206Z,5.64
2022-11-20T01:14:33.603Z,5.58
2022-11-20T01:16:47.640Z,5.54
2022-11-20T01:19:01.930Z,5.51
2022-11-20T01:21:16.176Z,5.45
2022-11-20T01:23:29.049Z,5.39
2022-11-20T01:25:42.025Z,5.34
2022-11-20T01:27:55.864Z,5.30
2022-11-20T01:30:09.176Z,5.25
2022-11-20T01:32:21.695Z,5.18
2022-11-20T01:34:35.016Z,5.13
2022-11-20T01:36:48.927Z,5.10
2022-11-20T01:39:02.857Z,5.08
2022-11-20T01:41:37.494Z,5.06
2022-11-20T01:43:50.152Z,5.00
2022-11-20T01:46:08.506Z,4.95
2022-11-20T01:48:22.106Z,4.91
2022-11-20T01:50:36.137Z,4.88
2022-11-20T01:52:54.443Z,4.85
2022-11-20T01:55:11.153Z,4.81
2022-11-20T01:57:26.098Z,4.76
2022-11-20T01:59:39.978Z,4.71
2022-11-20T02:01:52.920Z,4.68
2022-11-20T02:04:06.833Z,4.66
2022-11-20T02:06:23.331Z,4.63
2022-11-20T02:08:36.684Z,4.63
2022-11-20T02:10:50.059Z,4.61
2022-11-20T02:13:20.037Z,4.60
2022-11-20T02:15:32.950Z,4.58
2022-11-20T02:17:45.658Z,4.56
2022-11-20T02:19:58.595Z,4.53
2022-11-20T02:22:16.699Z,4.51
2022-11-20T02:24:29.758Z,4.49
2022-11-20T02:26:50.924Z,4.51
2022-11-20T02:29:04.602Z,4.52
2022-11-20T02:31:17.322Z,4.52
2022-11-20T02:33:31.469Z,4.51
2022-11-20T02:35:53.845Z,4.49
2022-11-20T02:38:08.576Z,4.50
2022-11-20T02:40:21.502Z,4.50
2022-11-20T02:42:33.940Z,4.48
2022-11-20T02:44:46.705Z,4.47
2022-11-20T02:47:01.168Z,4.46
2022-11-20T02:49:13.814Z,4.45
2022-11-20T02:51:27.225Z,4.45
2022-11-20T02:53:39.887Z,4.44
2022-11-20T02:55:53.046Z,4.43
2022-11-20T02:58:05.490Z,4.42
2022-11-20T03:00:21.188Z,4.40
2022-11-20T03:02:36.511Z,4.38
2022-11-20T03:04:49.171Z,4.35
2022-11-20T03:07:01.782Z,4.31
2022-11-20T03:09:14.616Z,4.32
2022-11-20T03:11:28.040Z,4.29
2022-11-20T03:13:41.353Z,4.28
2022-11-20T03:15:54.569Z,4.25
2022-11-20T03:18:06.945Z,4.22
2022-11-20T03:20:20.061Z,4.21
2022-11-20T03:22:33.816Z,4.19
2022-11-20T03:24:46.193Z,4.18
2022-11-20T03:26:59.185Z,4.17
2022-11-20T03:29:11.804Z,4.15
2022-11-20T03:31:26.496Z,4.12
2022-11-20T03:33:38.989Z,4.12
2022-11-20T03:35:52.408Z,4.11
2022-11-20T03:38:04.919Z,4.12
2022-11-20T03:40:18.555Z,4.12
2022-11-20T03:42:50.595Z,4.13
2022-11-20T03:45:03.367Z,4.12
2022-11-20T03:47:15.728Z,4.11
2022-11-20T03:49:28.446Z,4.09
2022-11-20T03:51:41.339Z,4.07
2022-11-20T03:53:55.511Z,4.05
2022-11-20T03:56:08.587Z,4.01
2022-11-20T03:58:21.609Z,3.99
2022-11-20T04:00:34.199Z,3.96
2022-11-20T04:02:47.087Z,3.93
2022-11-20T04:05:00.103Z,3.90
2022-11-20T04:07:12.912Z,3.87
2022-11-20T04:09:25.775Z,3.85
2022-11-20T04:11:40.792Z,3.83
2022-11-20T04:13:57.028Z,3.82
2022-11-20T04:16:10.088Z,3.80
2022-11-20T04:18:23.084Z,3.78
2022-11-20T04:20:36.721Z,3.76
2022-11-20T04:22:49.367Z,3.75
2022-11-20T04:25:02.177Z,3.73
2022-11-20T04:27:14.782Z,3.71
2022-11-20T04:29:27.549Z,3.69
2022-11-20T04:31:40.594Z,3.67
2022-11-20T04:33:54.427Z,3.64
2022-11-20T04:36:10.342Z,3.62
2022-11-20T04:38:23.468Z,3.60
2022-11-20T04:40:36.942Z,3.58
2022-11-20T04:42:49.617Z,3.55
2022-11-20T04:45:02.806Z,3.53
2022-11-20T04:47:16.557Z,3.52
2022-11-20T04:49:29.171Z,3.50
2022-11-20T04:51:41.918Z,3.48
2022-11-20T04:53:54.652Z,3.47
2022-11-20T04:56:13.020Z,3.43
2022-11-20T04:58:26.543Z,3.42
2022-11-20T05:00:39.557Z,3.41
2022-11-20T05:02:52.443Z,3.38
2022-11-20T05:05:05.359Z,3.37
2022-11-20T05:07:18.053Z,3.34
2022-11-20T05:09:31.475Z,3.32
2022-11-20T05:11:45.509Z,3.29
2022-11-20T05:14:02.780Z,3.28
2022-11-20T05:16:16.994Z,3.26
2022-11-20T05:18:30.000Z,3.23
2022-11-20T05:20:42.826Z,3.20
2022-11-20T05:22:55.985Z,3.18
2022-11-20T05:25:09.168Z,3.17
2022-11-20T05:27:21.903Z,3.17
2022-11-20T05:29:34.615Z,3.15
2022-11-20T05:31:48.198Z,3.13
2022-11-20T05:34:02.482Z,3.11
2022-11-20T05:36:16.711Z,3.09
2022-11-20T05:38:29.616Z,3.09
2022-11-20T05:40:42.638Z,3.07
2022-11-20T05:42:55.053Z,3.06
2022-11-20T05:45:09.055Z,3.05
2022-11-20T05:47:22.430Z,3.04
2022-11-20T05:49:35.142Z,3.02
2022-11-20T05:51:48.211Z,2.99
2022-11-20T05:54:02.238Z,2.97
2022-11-20T05:56:17.454Z,2.94
2022-11-20T05:58:30.176Z,2.91
2022-11-20T06:00:42.929Z,2.86
2022-11-20T06:02:56.001Z,2.84
2022-11-20T06:05:09.620Z,2.81
2022-11-20T06:07:23.068Z,2.78
2022-11-20T06:09:35.997Z,2.75
2022-11-20T06:11:49.599Z,2.72
2022-11-20T06:14:02.587Z,2.70
2022-11-20T06:16:17.150Z,2.69
2022-11-20T06:18:30.452Z,2.67
2022-11-20T06:20:42.982Z,2.65
2022-11-20T06:22:55.819Z,2.63
2022-11-20T06:25:08.400Z,2.62
2022-11-20T06:27:20.953Z,2.61
2022-11-20T06:29:34.257Z,2.60
2022-11-20T06:31:47.187Z,2.58
2022-11-20T06:34:00.804Z,2.56
2022-11-20T06:36:14.507Z,2.54
2022-11-20T06:38:27.885Z,2.52
2022-11-20T06:40:40.275Z,2.50
2022-11-20T06:42:52.713Z,2.49
2022-11-20T06:45:05.808Z,2.48
2022-11-20T06:47:18.504Z,2.45
2022-11-20T06:49:32.760Z,2.45
2022-11-20T06:51:45.469Z,2.44
2022-11-20T06:53:58.109Z,2.43
2022-11-20T06:56:12.162Z,2.42
2022-11-20T06:58:24.999Z,2.41
2022-11-20T07:00:37.755Z,2.38
2022-11-20T07:02:50.400Z,2.36
2022-11-20T07:05:03.400Z,2.34
2022-11-20T07:07:16.288Z,2.32
2022-11-20T07:09:28.823Z,2.30
2022-11-20T07:11:41.398Z,2.29
2022-11-20T07:13:54.207Z,2.28
2022-11-20T07:16:09.946Z,2.26
2022-11-20T07:18:22.629Z,2.23
2022-11-20T07:20:35.415Z,2.21
2022-11-20T07:22:48.632Z,2.18
2022-11-20T07:25:01.897Z,2.15
2022-11-20T07:27:14.926Z,2.13
2022-11-20T07:29:28.025Z,2.12
2022-11-20T07:31:40.812Z,2.10
2022-11-20T07:33:53.321Z,2.08
2022-11-20T07:36:07.943Z,2.06
2022-11-20T07:38:21.095Z,2.03
2022-11-20T07:40:33.940Z,2.01
2022-11-20T07:42:54.069Z,1.99
2022-11-20T07:45:06.970Z,1.98
2022-11-20T07:47:19.443Z,1.95
2022-11-20T07:49:32.335Z,1.93
2022-11-20T07:51:47.896Z,1.92
2022-11-20T07:54:03.044Z,1.91
2022-11-20T07:56:16.219Z,1.90
2022-11-20T07:58:29.225Z,1.90
2022-11-20T08:00:42.261Z,1.91
2022-11-20T08:02:55.051Z,1.92
2022-11-20T08:05:08.128Z,1.92
2022-11-20T08:07:21.069Z,1.93
2022-11-20T08:09:34.677Z,1.92
2022-11-20T08:12:04.293Z,1.93
2022-11-20T08:14:16.704Z,1.94
2022-11-20T08:16:30.092Z,1.94
2022-11-20T08:18:43.258Z,1.95
2022-11-20T08:20:56.190Z,1.96
2022-11-20T08:23:10.695Z,1.94
2022-11-20T08:25:23.281Z,1.93
2022-11-20T08:27:38.778Z,1.92
2022-11-20T08:29:52.082Z,1.90
2022-11-20T08:32:04.471Z,1.89
2022-11-20T08:34:23.964Z,1.88
2022-11-20T08:36:39.757Z,1.87
2022-11-20T08:38:56.400Z,1.85
2022-11-20T08:41:30.526Z,1.83
2022-11-20T08:43:43.601Z,1.82
2022-11-20T08:45:56.098Z,1.79
2022-11-20T08:48:10.150Z,1.78
2022-11-20T08:50:23.997Z,1.77
2022-11-20T08:52:39.856Z,1.75
2022-11-20T08:54:52.885Z,1.76
2022-11-20T08:57:05.698Z,1.74
2022-11-20T08:59:36.711Z,1.72
2022-11-20T09:01:51.942Z,1.70
2022-11-20T09:04:06.681Z,1.69
2022-11-20T09:06:19.068Z,1.68
2022-11-20T09:08:33.323Z,1.67
2022-11-20T09:10:46.029Z,1.67
2022-11-20T09:12:58.897Z,1.66
2022-11-20T09:15:13.167Z,1.66
2022-11-20T09:17:25.747Z,1.63
2022-11-20T09:19:38.450Z,1.59
2022-11-20T09:21:53.576Z,1.56
2022-11-20T09:24:09.414Z,1.53
2022-11-20T09:26:21.828Z,1.50
2022-11-20T09:28:34.752Z,1.48
2022-11-20T09:30:47.557Z,1.45
2022-11-20T09:33:00.632Z,1.43
2022-11-20T09:35:14.843Z,1.41
2022-11-20T09:37:28.120Z,1.42
2022-11-20T09:39:40.943Z,1.43
2022-11-20T09:42:12.024Z,1.43
2022-11-20T09:44:39.972Z,1.43
2022-11-20T09:46:57.648Z,1.44
2022-11-20T09:49:29.139Z,1.43
2022-11-20T09:51:55.616Z,1.46
2022-11-20T09:54:19.206Z,1.46
2022-11-20T09:56:33.499Z,1.46
2022-11-20T09:58:48.845Z,1.47
2022-11-20T10:01:08.393Z,1.46
2022-11-20T10:03:26.483Z,1.45
2022-11-20T10:05:45.106Z,1.44
2022-11-20T10:08:04.619Z,1.43
2022-11-20T10:10:25.986Z,1.42
2022-11-20T10:13:00.576Z,1.40
2022-11-20T10:15:30.937Z,1.39
2022-11-20T10:18:03.348Z,1.38
2022-11-20T10:20:28.974Z,1.37
2022-11-20T10:23:03.767Z,1.36
2022-11-20T10:25:22.136Z,1.34
2022-11-20T10:28:10.776Z,1.33
2022-11-20T10:30:27.310Z,1.32
2022-11-20T10:32:43.633Z,1.30
2022-11-20T10:35:01.730Z,1.29
2022-11-20T10:37:20.334Z,1.28
2022-11-20T10:39:43.452Z,1.27
2022-11-20T10:41:57.691Z,1.27
2022-11-20T10:44:16.812Z,1.26
2022-11-20T10:46:36.865Z,1.25
2022-11-20T10:48:51.406Z,1.24
2022-11-20T10:51:22.362Z,1.24
2022-11-20T10:53:52.635Z,1.24
2022-11-20T10:56:11.712Z,1.25
2022-11-20T10:58:34.151Z,1.25
2022-11-20T11:00:47.229Z,1.26
2022-11-20T11:03:04.434Z,1.26
2022-11-20T11:05:32.071Z,1.27
2022-11-20T11:07:46.513Z,1.28
2022-11-20T11:10:00.832Z,1.29
2022-11-20T11:12:16.274Z,1.30
2022-11-20T11:14:29.007Z,1.32
2022-11-20T11:16:53.105Z,1.32
2022-11-20T11:19:16.607Z,1.32
2022-11-20T11:21:33.393Z,1.30
2022-11-20T11:23:46.911Z,1.26
2022-11-20T11:26:07.272Z,1.21
2022-11-20T11:28:29.891Z,1.16
2022-11-20T11:30:51.500Z,1.12
2022-11-20T11:33:22.437Z,1.08
2022-11-20T11:35:35.306Z,1.01
2022-11-20T11:37:50.021Z,0.94
2022-11-20T11:42:36.246Z,0.86
2022-11-20T11:45:09.933Z,0.83
2022-11-20T11:47:28.740Z,0.77
2022-11-20T11:49:42.388Z,0.74
2022-11-20T11:52:06.297Z,0.69
2022-11-20T11:54:26.137Z,0.67
2022-11-20T11:56:40.665Z,0.64
2022-11-20T11:58:57.249Z,0.64
2022-11-20T12:01:17.037Z,0.61
2022-11-20T12:03:38.527Z,0.57
2022-11-20T12:05:55.131Z,0.54
2022-11-20T12:08:14.434Z,0.51
2022-11-20T12:10:38.750Z,0.49
2022-11-20T12:12:56.809Z,0.46
2022-11-20T12:15:14.994Z,0.42
2022-11-20T12:17:27.814Z,0.39
2022-11-20T12:19:41.303Z,0.35
2022-11-20T12:22:05.019Z,0.30
2022-11-20T12:24:44.740Z,0.27
2022-11-20T12:27:16.236Z,0.23
2022-11-20T12:29:39.517Z,0.19
2022-11-20T12:32:10.550Z,0.16
2022-11-20T12:34:37.044Z,0.14
2022-11-20T12:37:01.067Z,0.12
2022-11-20T12:39:45.268Z,0.11
2022-11-20T12:42:38.209Z,0.08
2022-11-20T12:45:14.799Z,0.08
2022-11-20T12:47:37.568Z,0.07
2022-11-20T12:49:59.664Z,0.07
2022-11-20T12:52:33.578Z,0.06
2022-11-20T12:55:12.401Z,0.03
2022-11-20T12:57:33.095Z,0.01
2022-11-20T13:00:04.488Z,-0.00
2022-11-20T13:02:29.872Z,-0.02
2022-11-20T13:04:57.463Z,-0.02
2022-11-20T13:07:13.052Z,-0.03
2022-11-20T13:09:27.992Z,-0.04
2022-11-20T13:11:47.339Z,-0.06
2022-11-20T13:14:24.325Z,-0.08
2022-11-20T13:16:42.838Z,-0.10
2022-11-20T13:18:56.158Z,-0.14
2022-11-20T13:21:17.215Z,-0.17
2022-11-20T13:23:33.821Z,-0.19
2022-11-20T13:25:47.127Z,-0.16
2022-11-20T13:28:00.514Z,-0.15
2022-11-20T13:30:24.070Z,-0.12
2022-11-20T13:32:36.824Z,-0.09
2022-11-20T13:34:59.063Z,-0.06
2022-11-20T13:37:24.445Z,-0.01
2022-11-20T13:39:38.310Z,0.04
2022-11-20T13:42:01.375Z,0.10
2022-11-20T13:44:19.577Z,0.14
2022-11-20T13:46:44.971Z,0.17
2022-11-20T13:48:59.447Z,0.20
2022-11-20T13:51:22.531Z,0.22
2022-11-20T13:53:56.585Z,0.25
2022-11-20T13:56:16.267Z,0.28
2022-11-20T13:58:40.280Z,0.32
2022-11-20T14:00:58.696Z,0.36
2022-11-20T14:03:28.385Z,0.39
2022-11-20T14:06:00.937Z,0.42
2022-11-20T14:08:24.666Z,0.45
2022-11-20T14:10:37.342Z,0.48
2022-11-20T14:12:50.075Z,0.50
2022-11-20T14:15:03.444Z,0.54
2022-11-20T14:17:24.688Z,0.56
2022-11-20T14:19:39.171Z,0.59
2022-11-20T14:21:53.191Z,0.62
2022-11-20T14:24:18.005Z,0.64
2022-11-20T14:26:31.238Z,0.65
2022-11-20T14:28:44.476Z,0.63
2022-11-20T14:30:57.757Z,0.59
2022-11-20T14:33:11.100Z,0.55
2022-11-20T14:35:29.172Z,0.50
2022-11-20T14:37:45.154Z,0.43
2022-11-20T14:40:00.917Z,0.36
2022-11-20T14:42:22.898Z,0.31
2022-11-20T14:44:39.129Z,0.24
2022-11-20T14:46:52.506Z,0.19
2022-11-20T14:49:08.306Z,0.14
2022-11-20T14:51:31.378Z,0.08
2022-11-20T14:53:44.211Z,0.01
2022-11-20T14:56:03.275Z,-0.04
2022-11-20T14:58:28.725Z,-0.08
2022-11-20T15:00:41.718Z,-0.11
2022-11-20T15:02:55.976Z,-0.13
2022-11-20T15:05:10.033Z,-0.16
2022-11-20T15:07:33.554Z,-0.18
2022-11-20T15:09:46.270Z,-0.22
2022-11-20T15:12:04.223Z,-0.25
2022-11-20T15:14:19.015Z,-0.28
2022-11-20T15:16:35.163Z,-0.31
2022-11-20T15:18:48.273Z,-0.32
2022-11-20T15:21:02.849Z,-0.34
2022-11-20T15:23:20.403Z,-0.36
2022-11-20T15:25:33.252Z,-0.37
2022-11-20T15:27:46.052Z,-0.34
2022-11-20T15:29:58.868Z,-0.32
2022-11-20T15:32:13.644Z,-0.31
2022-11-20T15:34:26.642Z,-0.31
2022-11-20T15:36:39.501Z,-0.32
2022-11-20T15:38:52.628Z,-0.31
2022-11-20T15:41:05.353Z,-0.32
2022-11-20T15:43:18.322Z,-0.33
2022-11-20T15:45:32.368Z,-0.33
2022-11-20T15:47:45.008Z,-0.34
2022-11-20T15:49:57.516Z,-0.35
2022-11-20T15:52:10.015Z,-0.37
2022-11-20T15:54:24.926Z,-0.39
2022-11-20T15:56:37.874Z,-0.40
2022-11-20T15:58:50.914Z,-0.35
2022-11-20T16:01:03.694Z,-0.16
2022-11-20T16:03:18.609Z,0.15
2022-11-20T16:05:34.851Z,0.51
2022-11-20T16:07:47.814Z,0.91
2022-11-20T16:10:00.520Z,1.44
2022-11-20T16:12:37.103Z,1.93
2022-11-20T16:15:15.534Z,2.53
2022-11-20T16:17:44.759Z,3.09
2022-11-20T16:19:57.778Z,3.50
2022-11-20T16:22:10.704Z,3.78
2022-11-20T16:24:24.445Z,4.05
2022-11-20T16:26:37.898Z,4.34
2022-11-20T16:28:50.772Z,4.64
2022-11-20T16:31:11.578Z,4.96
2022-11-20T16:33:24.684Z,5.29
2022-11-20T16:35:37.897Z,5.60
2022-11-20T16:37:50.694Z,5.82
2022-11-20T16:40:03.323Z,6.09
2022-11-20T16:42:16.004Z,6.39
2022-11-20T16:44:28.835Z,6.57
2022-11-20T16:46:41.759Z,6.77
2022-11-20T16:48:59.651Z,7.04
2022-11-20T16:51:15.699Z,7.29
2022-11-20T16:53:28.950Z,7.52
2022-11-20T16:55:41.714Z,7.72
2022-11-20T16:57:54.185Z,7.88
2022-11-20T17:00:07.344Z,8.10
2022-11-20T17:02:20.142Z,8.26
2022-11-20T17:04:33.532Z,8.39
2022-11-20T17:06:48.893Z,8.51
2022-11-20T17:09:02.163Z,8.57
2022-11-20T17:11:16.743Z,8.61
2022-11-20T17:13:29.449Z,8.67
2022-11-20T17:15:42.365Z,8.77
2022-11-20T17:17:55.319Z,8.94
2022-11-20T17:20:08.479Z,9.08
2022-11-20T17:22:21.246Z,9.21
2022-11-20T17:24:34.448Z,9.31
2022-11-20T17:26:48.251Z,9.35
2022-11-20T17:29:02.799Z,9.42
2022-11-20T17:31:17.527Z,9.55
2022-11-20T17:33:30.745Z,9.74
2022-11-20T17:35:43.895Z,9.91
2022-11-20T17:37:57.067Z,9.97
2022-11-20T17:40:11.266Z,10.00
2022-11-20T17:42:30.656Z,10.00
2022-11-20T17:44:43.783Z,10.06
2022-11-20T17:46:56.835Z,10.18
2022-11-20T17:49:09.889Z,10.30
2022-11-20T17:51:24.583Z,10.39
2022-11-20T17:53:39.879Z,10.51
2022-11-20T17:56:17.844Z,10.70
2022-11-20T17:58:33.218Z,10.85
2022-11-20T18:00:45.962Z,10.85
2022-11-20T18:02:59.087Z,10.78
2022-11-20T18:05:13.215Z,10.71
2022-11-20T18:07:26.197Z,10.70
2022-11-20T18:09:39.239Z,10.77
2022-11-20T18:11:52.386Z,10.65
2022-11-20T18:14:23.894Z,10.56
2022-11-20T18:16:38.684Z,10.57
2022-11-20T18:18:51.124Z,10.49
2022-11-20T18:21:03.894Z,10.56
2022-11-20T18:23:16.766Z,10.63
2022-11-20T18:25:30.040Z,10.78
2022-11-20T18:27:42.401Z,10.88
2022-11-20T18:29:55.187Z,10.89
2022-11-20T18:32:07.940Z,10.85
2022-11-20T18:34:20.556Z,10.85
2022-11-20T18:36:35.173Z,10.76
2022-11-20T18:38:48.559Z,10.73
2022-11-20T18:41:03.888Z,10.69
2022-11-20T18:43:36.494Z,10.75
2022-11-20T18:45:49.210Z,10.88
2022-11-20T18:48:02.089Z,10.94
2022-11-20T18:50:15.519Z,10.94
2022-11-20T18:52:30.148Z,10.90
2022-11-20T18:54:43.044Z,10.81
2022-11-20T18:56:56.084Z,10.78
2022-11-20T18:59:10.476Z,10.71
2022-11-20T19:01:23.379Z,10.67
2022-11-20T19:03:37.887Z,10.63
2022-11-20T19:05:50.597Z,10.56
2022-11-20T19:08:03.449Z,10.52
2022-11-20T19:10:16.520Z,10.52
2022-11-20T19:12:29.385Z,10.58
2022-11-20T19:14:42.484Z,10.65
2022-11-20T19:16:55.469Z,10.70
2022-11-20T19:19:09.423Z,10.63
2022-11-20T19:21:23.969Z,10.62
2022-11-20T19:23:36.663Z,10.49
2022-11-20T19:25:49.504Z,10.56
2022-11-20T19:28:02.872Z,10.73
2022-11-20T19:30:18.384Z,10.86
2022-11-20T19:32:31.524Z,10.93
2022-11-20T19:34:44.825Z,10.97
2022-11-20T19:36:57.872Z,11.06
2022-11-20T19:39:11.759Z,11.18
2022-11-20T19:41:29.890Z,11.28
2022-11-20T19:43:42.634Z,11.37
2022-11-20T19:45:55.547Z,11.45
2022-11-20T19:48:09.001Z,11.49
2022-11-20T19:50:22.001Z,11.34
2022-11-20T19:52:34.741Z,11.06
2022-11-20T19:54:48.412Z,10.76
2022-11-20T19:57:02.312Z,10.64
2022-11-20T19:59:15.194Z,10.65
2022-11-20T20:01:29.806Z,10.65
2022-11-20T20:03:43.720Z,10.58
2022-11-20T20:05:57.099Z,10.56
2022-11-20T20:08:12.148Z,10.43
2022-11-20T20:10:28.209Z,10.28
2022-11-20T20:12:40.891Z,10.30
2022-11-20T20:14:53.820Z,10.25
2022-11-20T20:17:06.838Z,10.21
2022-11-20T20:19:21.964Z,10.15
2022-11-20T20:21:37.363Z,10.12
2022-11-20T20:23:53.563Z,10.07
2022-11-20T20:26:08.034Z,10.02
2022-11-20T20:28:21.479Z,10.03
2022-11-20T20:30:34.769Z,10.12
2022-11-20T20:32:50.715Z,10.07
2022-11-20T20:35:06.170Z,10.00
2022-11-20T20:37:18.951Z,9.93
2022-11-20T20:39:32.436Z,9.83
2022-11-20T20:41:45.008Z,9.70
2022-11-20T20:44:14.746Z,9.61
2022-11-20T20:46:27.699Z,9.59
2022-11-20T20:48:41.275Z,9.57
2022-11-20T20:51:02.146Z,9.55
2022-11-20T20:53:14.729Z,9.54
2022-11-20T20:55:27.469Z,9.59
2022-11-20T20:57:40.896Z,9.60
2022-11-20T20:59:54.451Z,9.59
2022-11-20T21:02:07.546Z,9.59
2022-11-20T21:04:20.390Z,9.61
2022-11-20T21:06:33.295Z,9.53
2022-11-20T21:08:46.138Z,9.49
2022-11-20T21:11:03.506Z,9.48
2022-11-20T21:13:16.212Z,9.46
2022-11-20T21:15:29.014Z,9.47
2022-11-20T21:17:45.243Z,9.39
2022-11-20T21:19:58.088Z,9.34
2022-11-20T21:22:11.054Z,9.29
2022-11-20T21:24:24.013Z,9.33
2022-11-20T21:26:37.479Z,9.35
2022-11-20T21:28:50.890Z,9.41
2022-11-20T21:31:11.852Z,9.55
2022-11-20T21:33:24.759Z,9.60
2022-11-20T21:35:40.703Z,9.60
2022-11-20T21:37:53.450Z,9.55
2022-11-20T21:40:06.246Z,9.50
2022-11-20T21:42:19.870Z,9.45
2022-11-20T21:44:34.602Z,9.37
2022-11-20T21:46:49.089Z,9.30
2022-11-20T21:49:02.425Z,9.29
2022-11-20T21:51:18.439Z,9.29
2022-11-20T21:53:31.508Z,9.27
2022-11-20T21:55:44.365Z,9.26
2022-11-20T21:57:57.138Z,9.22
2022-11-20T22:00:11.988Z,9.21
2022-11-20T22:02:24.547Z,9.16
2022-11-20T22:04:37.169Z,9.06
2022-11-20T22:06:49.909Z,9.04
2022-11-20T22:09:03.234Z,9.07
2022-11-20T22:11:18.439Z,9.06
2022-11-20T22:13:48.509Z,8.98
2022-11-20T22:16:06.614Z,8.96
2022-11-20T22:18:19.410Z,8.96
2022-11-20T22:20:32.653Z,8.98
2022-11-20T22:22:45.412Z,9.02
2022-11-20T22:24:58.732Z,9.06
2022-11-20T22:27:13.441Z,9.03
2022-11-20T22:29:26.957Z,9.07
2022-11-20T22:31:40.181Z,9.07
2022-11-20T22:33:53.174Z,9.02
2022-11-20T22:36:10.871Z,9.00
2022-11-20T22:38:26.588Z,8.96
2022-11-20T22:40:44.877Z,8.93
2022-11-20T22:42:57.650Z,8.91
2022-11-20T22:45:12.779Z,8.85
2022-11-20T22:47:25.536Z,8.82
2022-11-20T22:49:38.224Z,8.78
2022-11-20T22:51:50.924Z,8.76
2022-11-20T22:54:04.883Z,8.71
2022-11-20T22:56:18.499Z,8.69
2022-11-20T22:58:33.750Z,8.63
2022-11-20T23:00:46.479Z,8.58
2022-11-20T23:02:59.374Z,8.56
2022-11-20T23:05:12.798Z,8.55
2022-11-20T23:07:25.866Z,8.48
2022-11-20T23:09:38.850Z,8.42
2022-11-20T23:11:52.878Z,8.34
2022-11-20T23:14:07.768Z,8.26
2022-11-20T23:16:22.324Z,8.21
2022-11-20T23:18:36.030Z,8.16
2022-11-20T23:20:48.541Z,8.10
2022-11-20T23:23:01.452Z,8.10
2022-11-20T23:25:15.301Z,8.09
2022-11-20T23:27:28.474Z,8.09
2022-11-20T23:29:41.623Z,8.12
2022-11-20T23:31:54.959Z,8.17
2022-11-20T23:34:08.216Z,8.23
2022-11-20T23:36:21.054Z,8.27
2022-11-20T23:38:34.356Z,8.31
2022-11-20T23:40:49.470Z,8.29
2022-11-20T23:43:20.334Z,8.29
2022-11-20T23:45:33.571Z,8.23
2022-11-20T23:47:46.292Z,8.19
2022-11-20T23:49:59.032Z,8.10
2022-11-20T23:52:12.619Z,8.04
2022-11-20T23:54:25.420Z,7.99
2022-11-20T23:56:39.089Z,7.92
2022-11-20T23:58:51.659Z,7.82
